La Guardia Airport
KLGA : now visible

Airfield :











YOU CAN JOIN US ON...

 
LOGIN :

Register | Disclaimer

   EN    FR    IT 

 









Legend :    VFR   Marginal VFR   IFR   Intensive IFR   Very Intensive IFR
Visi :
Ceiling :
>= 8 km
>= 3000ft
5 to 8 km
1000 to 3000 ft
1500m to 5 km
500 to 1000 ft
800 to 1500m
200 to 500 ft
< 800m
< 200 ft
Symbols :   Thunderstorms  Fog  Heavy snow  Heavy precipitations  Wind > 20 kt







- Airport Elevation : 21 ft
- IATA code : LGA


KLGA - La Guardia

CURRENT METAR :
  • 201451Z 30009KT 10SM BKN250 21/07 A3026 RMK AO2 SLP246 T02060072 58006

EXPIRED METARs :
  • 201351Z 31009KT 10SM SCT250 19/07 A3027 RMK AO2 SLP251 T01890067
  • 201251Z 32005KT 10SM SCT250 17/07 A3028 RMK AO2 SLP254 T01720072

TAF KLGA
Valid from the 20 at 14:00 until the 21 at 18:00 UTC


201343Z 2014/2118 29006KT P6SM FEW250
FM201700 28010KT P6SM SCT250
FM202100 24009KT P6SM SCT250
FM210100 27007KT P6SM FEW250
FM210900 30004KT P6SM FEW250
FM211700 26004KT P6SM FEW250
No reported NOTAMs for that airfield.



MET'MAP, your aeronautical weather chart ! - Copyright ORBIFLY December 2007 - Disclaimer

ORBIFLY MET'MAP TEAM :

Programming & Development : Alexandra Zaïnal
Concept & Development : Baudouin d'Aumeries
Co-Development & Prog : Marc-Olivier Méhu
Technical & hardware support : Manuel Goepfert

Contact : metmap@orbifly.com




SOURCES & CREDITS :

   NOAA       Earth
Advisory